CFB Cold Lake
CYOD : now visible

Airfield :











YOU CAN JOIN US ON...

 
LOGIN :

Register | Disclaimer

   EN    FR    IT 

 









Legend :    VFR   Marginal VFR   IFR   Intensive IFR   Very Intensive IFR
Visi :
Ceiling :
>= 8 km
>= 3000ft
5 to 8 km
1000 to 3000 ft
1500m to 5 km
500 to 1000 ft
800 to 1500m
200 to 500 ft
< 800m
< 200 ft
Symbols :   Thunderstorms  Fog  Heavy snow  Heavy precipitations  Wind > 20 kt






- Airport Elevation : 1775 ft
- IATA code : YOD


CYOD - CFB Cold Lake

CURRENT METAR :
  • 250400Z 11005KT 15SM FEW050 06/03 A2976 RMK SC1 DENSITY ALT 1301FT SLP094

EXPIRED METARs :
  • 250300Z 11007KT 15SM FEW050 08/04 A2975 RMK SC1 DENSITY ALT 1639FT SLP092
  • 250200Z 10011KT 15SM FEW030 09/04 A2975 RMK SC2 DENSITY ALT 1781FT SLP089
  • 250100Z 10009KT 15SM SCT030 10/04 A2975 RMK SC4 DENSITY ALT 1896FT SLP089
  • 250000Z 05010KT 15SM BKN025 10/04 A2976 RMK SC7 DENSITY ALT 1810FT SLP093

TAF TAF CYOD
Valid from the 25 at 03:00 until the 26 at 00:00 UTC


250240Z 2503/2524 10010KT P6SM FEW030
PROB30 2510/2514 1/2SM FG VV002
FM251400 06005KT P6SM FEW006 BKN025
FM251900 06005KT P6SM BKN040 RMK NXT FCST BY 250600Z
CZEG FIR / North America



MET'MAP, your aeronautical weather chart ! - Copyright ORBIFLY December 2007 - Disclaimer

ORBIFLY MET'MAP TEAM :

Programming & Development : Alexandra Zaïnal
Original concept : Baudouin d'Aumeries
Technical & hardware support : Manuel Goepfert
Assistance : Marc-Olivier Méhu




SOURCES & CREDITS :

   NOAA       Earth
Advisory